Destinations Røros Airport

Røros Airport (ENRO / RRS)

Flights to Røros Airport

Flight number From ETE Dispatch
SPY-3117 ENVA Trondheim Airport Værnes 00:35

Flights from Røros Airport

Flight number To ETE Dispatch
SPY-3118 ENVA Trondheim Airport Værnes 00:35
About

Røros Airport facts

Røros Airport is located in Roros at an elevation of 626.1 meters or 2054 feet.

Currently, Speedy Airlines serves 2 flights to and from Røros Airport.

Detailed airport info

Route map

Weather

Current weather

METAR

METAR

Metar data retrieved Sunday, 21 July 2024 at 18:55 UTC

ENRO 211820Z AUTO 16009KT 120V190 9999 FEW055/// 20/12 Q1010
Wind Temperature
9 kt 20c